createdAt,value
2019-01-27T00:00:54.324Z,5.64
2019-01-27T00:05:50.330Z,5.78
2019-01-27T00:10:46.272Z,5.76
2019-01-27T00:15:42.181Z,5.80
2019-01-27T00:20:38.106Z,5.79
2019-01-27T00:25:34.069Z,5.79
2019-01-27T00:30:29.965Z,5.80
2019-01-27T00:35:25.872Z,5.84
2019-01-27T00:40:21.885Z,5.88
2019-01-27T00:45:18.913Z,5.78
2019-01-27T00:50:17.718Z,5.81
2019-01-27T00:55:21.948Z,5.85
2019-01-27T01:00:21.454Z,5.94
2019-01-27T01:05:17.465Z,5.94
2019-01-27T01:10:16.781Z,6.00
2019-01-27T01:15:13.391Z,6.01
2019-01-27T01:20:12.404Z,5.85
2019-01-27T01:25:11.411Z,5.97
2019-01-27T01:30:10.718Z,5.99
2019-01-27T01:35:08.537Z,5.97
2019-01-27T01:40:08.165Z,6.02
2019-01-27T01:45:11.060Z,6.04
2019-01-27T01:50:07.071Z,6.00
2019-01-27T01:55:04.872Z,6.06
2019-01-27T02:00:01.430Z,6.09
2019-01-27T02:04:57.412Z,6.06
2019-01-27T02:09:53.349Z,6.14
2019-01-27T02:14:50.000Z,6.12
2019-01-27T02:19:45.883Z,6.10
2019-01-27T02:24:41.807Z,6.13
2019-01-27T02:29:37.734Z,5.97
2019-01-27T02:34:33.649Z,5.97
2019-01-27T02:39:29.552Z,5.90
2019-01-27T02:44:26.893Z,6.03
2019-01-27T02:49:22.901Z,5.94
2019-01-27T02:54:18.819Z,5.92
2019-01-27T02:59:14.810Z,5.98
2019-01-27T03:04:10.822Z,5.78
2019-01-27T03:09:09.459Z,5.93
2019-01-27T03:14:10.834Z,5.76
2019-01-27T03:19:06.837Z,5.94
2019-01-27T03:24:03.134Z,5.87
2019-01-27T03:28:59.171Z,5.75
2019-01-27T03:33:55.134Z,5.87
2019-01-27T03:38:51.048Z,5.74
2019-01-27T03:43:46.975Z,5.72
2019-01-27T03:48:43.038Z,5.80
2019-01-27T03:53:38.935Z,5.69
2019-01-27T03:58:34.843Z,5.75
2019-01-27T04:03:30.759Z,5.80
2019-01-27T04:08:26.687Z,5.74
2019-01-27T04:13:22.583Z,5.67
2019-01-27T04:18:18.512Z,5.54
2019-01-27T04:23:14.432Z,5.73
2019-01-27T04:28:11.496Z,5.68
2019-01-27T04:33:07.504Z,5.69
2019-01-27T04:38:03.509Z,5.73
2019-01-27T04:42:59.422Z,5.61
2019-01-27T04:47:55.314Z,5.72
2019-01-27T04:52:51.352Z,5.57
2019-01-27T04:57:47.452Z,5.61
2019-01-27T05:02:45.254Z,5.69
2019-01-27T05:07:41.153Z,5.61
2019-01-27T05:12:37.180Z,5.64
2019-01-27T05:17:33.104Z,5.68
2019-01-27T05:22:29.107Z,5.71
2019-01-27T05:27:25.477Z,5.65
2019-01-27T05:32:21.621Z,5.77
2019-01-27T05:37:17.526Z,5.69
2019-01-27T05:42:13.431Z,5.68
2019-01-27T05:47:09.438Z,5.68
2019-01-27T05:52:05.457Z,5.64
2019-01-27T05:57:01.472Z,5.74
2019-01-27T06:01:57.379Z,5.74
2019-01-27T06:06:53.293Z,5.65
2019-01-27T06:11:49.341Z,5.68
2019-01-27T06:16:45.244Z,5.61
2019-01-27T06:21:41.150Z,5.55
2019-01-27T06:26:37.056Z,5.47
2019-01-27T06:31:32.960Z,5.43
2019-01-27T06:36:28.869Z,5.48
2019-01-27T06:41:24.871Z,5.47
2019-01-27T06:46:20.777Z,5.53
2019-01-27T06:51:16.921Z,5.58
2019-01-27T06:56:12.865Z,5.61
2019-01-27T07:01:10.746Z,5.61
2019-01-27T07:06:08.567Z,5.74
2019-01-27T07:11:18.483Z,5.65
2019-01-27T07:16:22.358Z,5.65
2019-01-27T07:21:20.166Z,5.76
2019-01-27T07:26:18.081Z,5.87
2019-01-27T07:31:16.124Z,5.92
2019-01-27T07:36:16.717Z,5.86
2019-01-27T07:41:31.326Z,5.98
2019-01-27T07:46:32.152Z,5.88
2019-01-27T07:51:30.020Z,5.98
2019-01-27T07:56:28.008Z,5.99
2019-01-27T08:01:26.787Z,6.16
2019-01-27T08:06:30.644Z,6.21
2019-01-27T08:11:31.495Z,6.24
2019-01-27T08:16:45.898Z,6.16
2019-01-27T08:21:58.773Z,6.15
2019-01-27T08:27:02.415Z,6.19
2019-01-27T08:32:00.250Z,6.18
2019-01-27T08:37:16.426Z,6.22
2019-01-27T08:42:26.378Z,6.20
2019-01-27T08:47:22.353Z,6.27
2019-01-27T08:52:18.304Z,6.38
2019-01-27T08:57:14.243Z,6.36
2019-01-27T09:02:29.530Z,6.45
2019-01-27T09:07:29.961Z,6.50
2019-01-27T09:12:30.900Z,6.54
2019-01-27T09:17:45.487Z,6.53
2019-01-27T09:22:46.378Z,6.61
2019-01-27T09:27:47.234Z,6.69
2019-01-27T09:32:54.272Z,6.72
2019-01-27T09:37:54.922Z,6.79
2019-01-27T09:43:09.551Z,6.88
2019-01-27T09:48:25.569Z,6.93
2019-01-27T09:53:23.486Z,6.90
2019-01-27T09:58:24.534Z,6.97
2019-01-27T10:03:38.960Z,7.07
2019-01-27T10:08:39.360Z,7.11
2019-01-27T10:13:42.986Z,7.16
2019-01-27T10:18:57.557Z,7.17
2019-01-27T10:23:55.449Z,7.36
2019-01-27T10:34:21.115Z,7.33
2019-01-27T10:39:35.631Z,7.44
2019-01-27T10:44:46.284Z,7.53
2019-01-27T10:49:47.044Z,7.51
2019-01-27T10:54:47.609Z,7.77
2019-01-27T10:59:45.424Z,7.85
2019-01-27T11:04:51.774Z,7.84
2019-01-27T11:09:57.282Z,7.84
2019-01-27T11:14:58.942Z,7.77
2019-01-27T11:19:59.456Z,7.73
2019-01-27T11:30:07.301Z,7.62
2019-01-27T11:35:08.611Z,7.68
2019-01-27T11:40:25.824Z,7.68
2019-01-27T11:45:23.625Z,7.75
2019-01-27T11:50:25.406Z,7.55
2019-01-27T11:55:21.418Z,7.56
2019-01-27T12:00:19.431Z,7.46
2019-01-27T12:05:15.900Z,7.42
2019-01-27T12:10:14.866Z,7.41
2019-01-27T12:15:14.275Z,7.38
2019-01-27T12:20:11.288Z,7.39
2019-01-27T12:25:10.501Z,7.39
2019-01-27T12:30:11.039Z,7.35
2019-01-27T12:35:07.912Z,7.42
2019-01-27T12:40:07.634Z,7.43
2019-01-27T12:45:07.709Z,7.37
2019-01-27T12:50:07.519Z,7.27
2019-01-27T12:55:06.473Z,7.21
2019-01-27T13:00:24.109Z,7.30
2019-01-27T13:05:20.075Z,7.31
2019-01-27T13:10:16.243Z,7.38
2019-01-27T13:15:18.033Z,7.42
2019-01-27T13:20:14.015Z,7.29
2019-01-27T13:25:38.704Z,7.24
2019-01-27T13:30:34.586Z,7.16
2019-01-27T13:35:30.498Z,7.11
2019-01-27T13:40:26.535Z,7.09
2019-01-27T13:45:30.971Z,7.02
2019-01-27T13:50:28.117Z,6.97
2019-01-27T13:55:31.488Z,6.97
2019-01-27T14:00:38.165Z,6.93
2019-01-27T14:05:34.291Z,6.85
2019-01-27T14:10:32.262Z,6.86
2019-01-27T14:15:35.418Z,6.82
2019-01-27T14:20:33.403Z,6.81
2019-01-27T14:25:30.274Z,6.77
2019-01-27T14:30:39.247Z,6.61
2019-01-27T14:35:35.448Z,6.58
2019-01-27T14:40:31.453Z,6.53
2019-01-27T14:45:29.827Z,6.43
2019-01-27T14:50:37.840Z,6.40
2019-01-27T14:55:33.846Z,6.40
2019-01-27T15:00:36.625Z,6.43
2019-01-27T15:05:33.845Z,6.35
2019-01-27T15:10:30.947Z,6.24
2019-01-27T15:15:29.598Z,6.18
2019-01-27T15:20:35.244Z,6.18
2019-01-27T15:25:32.387Z,6.17
2019-01-27T15:30:53.080Z,6.11
2019-01-27T15:35:48.974Z,6.07
2019-01-27T15:40:44.985Z,6.05
2019-01-27T15:45:40.886Z,6.02
2019-01-27T15:50:36.877Z,5.99
2019-01-27T15:55:35.384Z,6.00
2019-01-27T16:00:31.396Z,6.02
2019-01-27T16:05:27.304Z,6.06
2019-01-27T16:10:24.434Z,6.12
2019-01-27T16:15:23.769Z,6.17
2019-01-27T16:20:19.845Z,6.13
2019-01-27T16:25:15.728Z,6.15
2019-01-27T16:30:29.442Z,6.16
2019-01-27T16:35:26.133Z,6.12
2019-01-27T16:40:22.027Z,6.13
2019-01-27T16:45:18.038Z,5.96
2019-01-27T16:50:15.110Z,5.92
2019-01-27T16:55:18.994Z,6.01
2019-01-27T17:00:20.208Z,5.98
2019-01-27T17:05:16.436Z,5.94
2019-01-27T17:10:15.778Z,5.91
2019-01-27T17:15:14.672Z,5.61
2019-01-27T17:20:19.436Z,5.56
2019-01-27T17:25:16.335Z,5.54
2019-01-27T17:30:16.012Z,5.42
2019-01-27T17:35:13.629Z,5.29
2019-01-27T17:40:15.454Z,5.14
2019-01-27T17:45:23.782Z,5.02
2019-01-27T17:50:20.903Z,4.87
2019-01-27T17:55:38.818Z,4.82
2019-01-27T18:00:36.797Z,4.77
2019-01-27T18:05:37.602Z,4.68
2019-01-27T18:10:35.410Z,4.57
2019-01-27T18:15:31.449Z,4.56
2019-01-27T18:20:27.319Z,4.50
2019-01-27T18:25:23.325Z,4.48
2019-01-27T18:30:19.932Z,4.48
2019-01-27T18:35:15.925Z,4.54
2019-01-27T18:40:12.958Z,4.53
2019-01-27T18:45:12.827Z,4.51
2019-01-27T18:50:11.601Z,4.50
2019-01-27T18:55:28.236Z,4.49
2019-01-27T19:00:43.094Z,4.47
2019-01-27T19:05:43.886Z,4.43
2019-01-27T19:10:53.579Z,4.43
2019-01-27T19:21:01.510Z,4.44
2019-01-27T19:25:59.355Z,4.46
2019-01-27T19:30:57.156Z,4.48
2019-01-27T19:35:57.685Z,4.44
2019-01-27T19:41:04.262Z,4.42
2019-01-27T19:46:05.183Z,4.47
2019-01-27T19:51:03.099Z,4.40
2019-01-27T19:56:09.762Z,4.35
2019-01-27T20:01:19.834Z,4.33
2019-01-27T20:06:20.774Z,4.29
2019-01-27T20:11:18.716Z,4.27
2019-01-27T20:16:16.563Z,4.29
2019-01-27T20:21:20.139Z,4.28
2019-01-27T20:26:18.280Z,4.19
2019-01-27T20:31:16.151Z,4.19
2019-01-27T20:36:13.974Z,4.19
2019-01-27T20:41:23.836Z,4.22
2019-01-27T20:46:33.979Z,4.20
2019-01-27T20:51:46.864Z,4.10
2019-01-27T20:56:44.998Z,4.08
2019-01-27T21:07:01.615Z,4.11
2019-01-27T21:12:16.372Z,4.09
2019-01-27T21:17:26.116Z,4.06
2019-01-27T21:22:22.534Z,4.07
2019-01-27T21:27:18.592Z,3.96
2019-01-27T21:32:14.559Z,3.96
2019-01-27T21:37:10.567Z,3.89
2019-01-27T21:42:06.471Z,3.88
2019-01-27T21:47:03.478Z,3.82
2019-01-27T21:51:59.585Z,3.73
2019-01-27T21:56:55.561Z,3.75
2019-01-27T22:01:51.632Z,3.73
2019-01-27T22:06:47.561Z,3.66
2019-01-27T22:11:43.591Z,3.64
2019-01-27T22:16:39.508Z,3.72
2019-01-27T22:21:35.660Z,3.76
2019-01-27T22:26:31.569Z,3.74
2019-01-27T22:31:27.476Z,3.80
2019-01-27T22:36:23.380Z,3.76
2019-01-27T22:41:19.400Z,3.76
2019-01-27T22:46:15.723Z,3.83
2019-01-27T22:51:11.756Z,3.85
2019-01-27T22:56:07.664Z,3.74
2019-01-27T23:01:05.030Z,3.77
2019-01-27T23:06:01.043Z,3.83
2019-01-27T23:10:56.950Z,3.88
2019-01-27T23:15:52.854Z,3.87
2019-01-27T23:20:48.753Z,3.83
2019-01-27T23:25:44.709Z,3.86
2019-01-27T23:30:40.732Z,3.89
2019-01-27T23:35:36.743Z,3.92
2019-01-27T23:40:32.703Z,3.93
2019-01-27T23:45:28.607Z,3.91
2019-01-27T23:50:24.516Z,3.95
2019-01-27T23:55:20.416Z,3.91
